sensor_id;sensor_type;location;lat;lon;timestamp;temperature;humidity
52565;DHT22;38460;53.106;7.004;2023-12-29T00:01:32;9.10;99.90
52565;DHT22;38460;53.106;7.004;2023-12-29T00:03:57;9.10;99.90
52565;DHT22;38460;53.106;7.004;2023-12-29T00:06:23;9.10;99.90
52565;DHT22;38460;53.106;7.004;2023-12-29T00:08:49;9.20;99.90
52565;DHT22;38460;53.106;7.004;2023-12-29T00:11:21;9.20;99.90
52565;DHT22;38460;53.106;7.004;2023-12-29T00:13:47;9.20;99.90
52565;DHT22;38460;53.106;7.004;2023-12-29T00:16:14;9.20;99.90
52565;DHT22;38460;53.106;7.004;2023-12-29T00:18:40;9.20;99.90
52565;DHT22;38460;53.106;7.004;2023-12-29T00:21:05;9.20;99.90
52565;DHT22;38460;53.106;7.004;2023-12-29T00:23:31;9.30;99.90
52565;DHT22;38460;53.106;7.004;2023-12-29T00:25:57;9.30;99.90
52565;DHT22;38460;53.106;7.004;2023-12-29T00:28:23;9.40;99.90
52565;DHT22;38460;53.106;7.004;2023-12-29T00:30:49;9.40;99.90
52565;DHT22;38460;53.106;7.004;2023-12-29T00:33:15;9.40;99.90
52565;DHT22;38460;53.106;7.004;2023-12-29T00:35:44;9.40;99.90
52565;DHT22;38460;53.106;7.004;2023-12-29T00:38:09;9.40;99.90
52565;DHT22;38460;53.106;7.004;2023-12-29T00:40:35;9.40;99.90
52565;DHT22;38460;53.106;7.004;2023-12-29T00:43:01;9.50;99.90
52565;DHT22;38460;53.106;7.004;2023-12-29T00:45:27;9.50;99.90
52565;DHT22;38460;53.106;7.004;2023-12-29T00:48:02;9.50;99.90
52565;DHT22;38460;53.106;7.004;2023-12-29T00:50:27;9.50;99.90
52565;DHT22;38460;53.106;7.004;2023-12-29T00:52:54;9.50;99.90
52565;DHT22;38460;53.106;7.004;2023-12-29T00:55:19;9.50;99.90
52565;DHT22;38460;53.106;7.004;2023-12-29T00:57:45;9.50;99.90
52565;DHT22;38460;53.106;7.004;2023-12-29T01:00:12;9.50;99.90
52565;DHT22;38460;53.106;7.004;2023-12-29T01:02:38;9.50;99.90
52565;DHT22;38460;53.106;7.004;2023-12-29T01:05:05;9.50;99.90
52565;DHT22;38460;53.106;7.004;2023-12-29T01:07:31;9.50;99.90
52565;DHT22;38460;53.106;7.004;2023-12-29T01:09:56;9.50;99.90
52565;DHT22;38460;53.106;7.004;2023-12-29T01:12:22;9.50;99.90
52565;DHT22;38460;53.106;7.004;2023-12-29T01:14:48;9.50;99.90
52565;DHT22;38460;53.106;7.004;2023-12-29T01:17:15;9.50;99.90
52565;DHT22;38460;53.106;7.004;2023-12-29T01:19:41;9.50;99.90
52565;DHT22;38460;53.106;7.004;2023-12-29T01:22:06;9.50;99.90
52565;DHT22;38460;53.106;7.004;2023-12-29T01:24:32;9.50;99.90
52565;DHT22;38460;53.106;7.004;2023-12-29T01:26:58;9.40;99.90
52565;DHT22;38460;53.106;7.004;2023-12-29T01:29:23;9.40;99.90
52565;DHT22;38460;53.106;7.004;2023-12-29T01:31:49;9.30;99.90
52565;DHT22;38460;53.106;7.004;2023-12-29T01:34:15;9.30;99.90
52565;DHT22;38460;53.106;7.004;2023-12-29T01:36:40;9.20;99.90
52565;DHT22;38460;53.106;7.004;2023-12-29T01:39:07;9.20;99.90
52565;DHT22;38460;53.106;7.004;2023-12-29T01:41:33;9.20;99.90
52565;DHT22;38460;53.106;7.004;2023-12-29T01:46:25;9.20;99.90
52565;DHT22;38460;53.106;7.004;2023-12-29T01:48:52;9.20;99.90
52565;DHT22;38460;53.106;7.004;2023-12-29T01:51:21;9.20;99.90
52565;DHT22;38460;53.106;7.004;2023-12-29T01:53:50;9.20;99.90
52565;DHT22;38460;53.106;7.004;2023-12-29T01:56:16;9.20;99.90
52565;DHT22;38460;53.106;7.004;2023-12-29T01:58:43;9.10;99.90
52565;DHT22;38460;53.106;7.004;2023-12-29T02:01:10;9.10;99.90
52565;DHT22;38460;53.106;7.004;2023-12-29T02:03:36;9.00;99.90
52565;DHT22;38460;53.106;7.004;2023-12-29T02:06:02;8.80;99.90
52565;DHT22;38460;53.106;7.004;2023-12-29T02:08:29;8.60;99.90
52565;DHT22;38460;53.106;7.004;2023-12-29T02:10:55;8.60;99.90
52565;DHT22;38460;53.106;7.004;2023-12-29T02:13:21;8.50;99.90
52565;DHT22;38460;53.106;7.004;2023-12-29T02:15:51;8.40;99.90
52565;DHT22;38460;53.106;7.004;2023-12-29T02:18:18;8.40;99.90
52565;DHT22;38460;53.106;7.004;2023-12-29T02:20:46;8.30;99.90
52565;DHT22;38460;53.106;7.004;2023-12-29T02:23:11;8.30;99.90
52565;DHT22;38460;53.106;7.004;2023-12-29T02:25:37;8.30;99.90
52565;DHT22;38460;53.106;7.004;2023-12-29T02:28:15;8.30;99.90
52565;DHT22;38460;53.106;7.004;2023-12-29T02:30:54;8.20;99.90
52565;DHT22;38460;53.106;7.004;2023-12-29T02:33:22;8.00;99.90
52565;DHT22;38460;53.106;7.004;2023-12-29T02:35:51;7.50;99.90
52565;DHT22;38460;53.106;7.004;2023-12-29T02:38:17;7.20;99.90
52565;DHT22;38460;53.106;7.004;2023-12-29T02:40:43;7.00;99.90
52565;DHT22;38460;53.106;7.004;2023-12-29T02:43:09;6.80;99.90
52565;DHT22;38460;53.106;7.004;2023-12-29T02:45:35;6.70;99.90
52565;DHT22;38460;53.106;7.004;2023-12-29T02:48:01;6.60;99.90
52565;DHT22;38460;53.106;7.004;2023-12-29T02:50:26;6.60;99.90
52565;DHT22;38460;53.106;7.004;2023-12-29T02:52:52;6.70;99.90
52565;DHT22;38460;53.106;7.004;2023-12-29T02:55:18;6.70;99.90
52565;DHT22;38460;53.106;7.004;2023-12-29T02:57:44;6.70;99.90
52565;DHT22;38460;53.106;7.004;2023-12-29T03:00:10;6.70;99.90
52565;DHT22;38460;53.106;7.004;2023-12-29T03:02:36;6.80;99.90
52565;DHT22;38460;53.106;7.004;2023-12-29T03:05:02;6.80;99.90
52565;DHT22;38460;53.106;7.004;2023-12-29T03:07:28;6.80;99.90
52565;DHT22;38460;53.106;7.004;2023-12-29T03:09:54;6.80;99.90
52565;DHT22;38460;53.106;7.004;2023-12-29T03:12:19;6.90;99.90
52565;DHT22;38460;53.106;7.004;2023-12-29T03:14:45;6.90;99.90
52565;DHT22;38460;53.106;7.004;2023-12-29T03:17:12;7.10;99.90
52565;DHT22;38460;53.106;7.004;2023-12-29T03:19:38;7.10;99.90
52565;DHT22;38460;53.106;7.004;2023-12-29T03:22:04;7.20;99.90
52565;DHT22;38460;53.106;7.004;2023-12-29T03:24:30;7.30;99.90
52565;DHT22;38460;53.106;7.004;2023-12-29T03:26:56;7.40;99.90
52565;DHT22;38460;53.106;7.004;2023-12-29T03:29:22;7.50;99.90
52565;DHT22;38460;53.106;7.004;2023-12-29T03:31:47;7.70;99.90
52565;DHT22;38460;53.106;7.004;2023-12-29T03:34:13;7.80;99.90
52565;DHT22;38460;53.106;7.004;2023-12-29T03:36:39;7.90;99.90
52565;DHT22;38460;53.106;7.004;2023-12-29T03:39:04;8.00;99.90
52565;DHT22;38460;53.106;7.004;2023-12-29T03:41:30;8.10;99.90
52565;DHT22;38460;53.106;7.004;2023-12-29T03:43:56;8.10;99.90
52565;DHT22;38460;53.106;7.004;2023-12-29T03:46:22;8.20;99.90
52565;DHT22;38460;53.106;7.004;2023-12-29T03:48:48;8.20;99.90
52565;DHT22;38460;53.106;7.004;2023-12-29T03:51:18;8.30;99.90
52565;DHT22;38460;53.106;7.004;2023-12-29T03:53:43;8.30;99.90
52565;DHT22;38460;53.106;7.004;2023-12-29T03:56:16;8.40;99.90
52565;DHT22;38460;53.106;7.004;2023-12-29T03:58:46;8.40;99.90
52565;DHT22;38460;53.106;7.004;2023-12-29T04:01:13;8.50;99.90
52565;DHT22;38460;53.106;7.004;2023-12-29T04:03:39;8.50;99.90
52565;DHT22;38460;53.106;7.004;2023-12-29T04:06:05;8.60;99.90
52565;DHT22;38460;53.106;7.004;2023-12-29T04:08:35;8.60;99.90
52565;DHT22;38460;53.106;7.004;2023-12-29T04:11:01;8.60;99.90
52565;DHT22;38460;53.106;7.004;2023-12-29T04:13:27;8.60;99.90
52565;DHT22;38460;53.106;7.004;2023-12-29T04:15:53;8.60;99.90
52565;DHT22;38460;53.106;7.004;2023-12-29T04:18:22;8.60;99.90
52565;DHT22;38460;53.106;7.004;2023-12-29T04:20:48;8.60;99.90
52565;DHT22;38460;53.106;7.004;2023-12-29T04:23:14;8.60;99.90
52565;DHT22;38460;53.106;7.004;2023-12-29T04:25:40;8.60;99.90
52565;DHT22;38460;53.106;7.004;2023-12-29T04:28:09;8.60;99.90
52565;DHT22;38460;53.106;7.004;2023-12-29T04:30:35;8.60;99.90
52565;DHT22;38460;53.106;7.004;2023-12-29T04:33:01;8.60;99.90
52565;DHT22;38460;53.106;7.004;2023-12-29T04:35:27;8.60;99.90
52565;DHT22;38460;53.106;7.004;2023-12-29T04:37:52;8.60;99.90
52565;DHT22;38460;53.106;7.004;2023-12-29T04:40:18;8.60;99.90
52565;DHT22;38460;53.106;7.004;2023-12-29T04:42:44;8.70;99.90
52565;DHT22;38460;53.106;7.004;2023-12-29T04:45:10;8.60;99.90
52565;DHT22;38460;53.106;7.004;2023-12-29T04:47:36;8.60;99.90
52565;DHT22;38460;53.106;7.004;2023-12-29T04:50:03;8.70;99.90
52565;DHT22;38460;53.106;7.004;2023-12-29T04:52:28;8.60;99.90
52565;DHT22;38460;53.106;7.004;2023-12-29T04:54:54;8.60;99.90
52565;DHT22;38460;53.106;7.004;2023-12-29T04:57:20;8.60;99.90
52565;DHT22;38460;53.106;7.004;2023-12-29T04:59:46;8.60;99.90
52565;DHT22;38460;53.106;7.004;2023-12-29T05:02:12;8.60;99.90
52565;DHT22;38460;53.106;7.004;2023-12-29T05:04:37;8.60;99.90
52565;DHT22;38460;53.106;7.004;2023-12-29T05:07:09;8.60;99.90
52565;DHT22;38460;53.106;7.004;2023-12-29T05:09:35;8.60;99.90
52565;DHT22;38460;53.106;7.004;2023-12-29T05:12:00;8.60;99.90
52565;DHT22;38460;53.106;7.004;2023-12-29T05:14:26;8.60;99.90
52565;DHT22;38460;53.106;7.004;2023-12-29T05:16:52;8.60;99.90
52565;DHT22;38460;53.106;7.004;2023-12-29T05:19:18;8.60;99.90
52565;DHT22;38460;53.106;7.004;2023-12-29T05:21:43;8.60;99.90
52565;DHT22;38460;53.106;7.004;2023-12-29T05:24:09;8.60;99.90
52565;DHT22;38460;53.106;7.004;2023-12-29T05:26:35;8.60;99.90
52565;DHT22;38460;53.106;7.004;2023-12-29T05:29:02;8.60;99.90
52565;DHT22;38460;53.106;7.004;2023-12-29T05:31:28;8.60;99.90
52565;DHT22;38460;53.106;7.004;2023-12-29T05:33:55;8.70;99.90
52565;DHT22;38460;53.106;7.004;2023-12-29T05:36:21;8.70;99.90
52565;DHT22;38460;53.106;7.004;2023-12-29T05:38:47;8.70;99.90
52565;DHT22;38460;53.106;7.004;2023-12-29T05:41:13;8.70;99.90
52565;DHT22;38460;53.106;7.004;2023-12-29T05:43:39;8.70;99.90
52565;DHT22;38460;53.106;7.004;2023-12-29T05:46:09;8.70;99.90
52565;DHT22;38460;53.106;7.004;2023-12-29T05:48:36;8.80;99.90
52565;DHT22;38460;53.106;7.004;2023-12-29T05:51:08;8.80;99.90
52565;DHT22;38460;53.106;7.004;2023-12-29T05:53:35;8.70;99.90
52565;DHT22;38460;53.106;7.004;2023-12-29T05:56:00;8.80;99.90
52565;DHT22;38460;53.106;7.004;2023-12-29T05:58:26;8.70;99.90
52565;DHT22;38460;53.106;7.004;2023-12-29T06:00:52;8.70;99.90
52565;DHT22;38460;53.106;7.004;2023-12-29T06:03:17;8.80;99.90
52565;DHT22;38460;53.106;7.004;2023-12-29T06:05:43;8.80;99.90
52565;DHT22;38460;53.106;7.004;2023-12-29T06:08:09;8.80;99.90
52565;DHT22;38460;53.106;7.004;2023-12-29T06:10:35;8.70;99.90
52565;DHT22;38460;53.106;7.004;2023-12-29T06:13:02;8.80;99.90
52565;DHT22;38460;53.106;7.004;2023-12-29T06:15:29;8.70;99.90
52565;DHT22;38460;53.106;7.004;2023-12-29T06:17:54;8.70;99.90
52565;DHT22;38460;53.106;7.004;2023-12-29T06:20:20;8.80;99.90
52565;DHT22;38460;53.106;7.004;2023-12-29T06:22:46;8.80;99.90
52565;DHT22;38460;53.106;7.004;2023-12-29T06:25:12;8.80;99.90
52565;DHT22;38460;53.106;7.004;2023-12-29T06:27:38;8.80;99.90
52565;DHT22;38460;53.106;7.004;2023-12-29T06:30:06;8.80;99.90
52565;DHT22;38460;53.106;7.004;2023-12-29T06:32:32;8.80;99.90
52565;DHT22;38460;53.106;7.004;2023-12-29T06:34:58;8.80;99.90
52565;DHT22;38460;53.106;7.004;2023-12-29T06:37:24;8.70;99.90
52565;DHT22;38460;53.106;7.004;2023-12-29T06:39:50;8.70;99.90
52565;DHT22;38460;53.106;7.004;2023-12-29T06:42:15;8.70;99.90
52565;DHT22;38460;53.106;7.004;2023-12-29T06:44:41;8.70;99.90
52565;DHT22;38460;53.106;7.004;2023-12-29T06:47:07;8.70;99.90
52565;DHT22;38460;53.106;7.004;2023-12-29T06:49:34;8.70;99.90
52565;DHT22;38460;53.106;7.004;2023-12-29T06:52:00;8.70;99.90
52565;DHT22;38460;53.106;7.004;2023-12-29T06:54:26;8.60;99.90
52565;DHT22;38460;53.106;7.004;2023-12-29T06:56:52;8.60;99.90
52565;DHT22;38460;53.106;7.004;2023-12-29T06:59:17;8.60;99.90
52565;DHT22;38460;53.106;7.004;2023-12-29T07:01:45;8.60;99.90
52565;DHT22;38460;53.106;7.004;2023-12-29T07:04:11;8.60;99.90
52565;DHT22;38460;53.106;7.004;2023-12-29T07:06:38;8.70;99.90
52565;DHT22;38460;53.106;7.004;2023-12-29T07:09:04;8.70;99.90
52565;DHT22;38460;53.106;7.004;2023-12-29T07:11:30;8.70;99.90
52565;DHT22;38460;53.106;7.004;2023-12-29T07:13:56;8.70;99.90
52565;DHT22;38460;53.106;7.004;2023-12-29T07:16:22;8.70;99.90
52565;DHT22;38460;53.106;7.004;2023-12-29T07:18:48;8.70;99.90
52565;DHT22;38460;53.106;7.004;2023-12-29T07:21:15;8.70;99.90
52565;DHT22;38460;53.106;7.004;2023-12-29T07:23:42;8.70;99.90
52565;DHT22;38460;53.106;7.004;2023-12-29T07:26:08;8.60;99.90
52565;DHT22;38460;53.106;7.004;2023-12-29T07:28:34;8.60;99.90
52565;DHT22;38460;53.106;7.004;2023-12-29T07:31:00;8.60;99.90
52565;DHT22;38460;53.106;7.004;2023-12-29T07:33:26;8.60;99.90
52565;DHT22;38460;53.106;7.004;2023-12-29T07:35:52;8.60;99.90
52565;DHT22;38460;53.106;7.004;2023-12-29T07:38:18;8.50;99.90
52565;DHT22;38460;53.106;7.004;2023-12-29T07:40:44;8.50;99.90
52565;DHT22;38460;53.106;7.004;2023-12-29T07:43:10;8.50;99.90
52565;DHT22;38460;53.106;7.004;2023-12-29T07:45:36;8.50;99.90
52565;DHT22;38460;53.106;7.004;2023-12-29T07:48:03;8.40;99.90
52565;DHT22;38460;53.106;7.004;2023-12-29T07:50:29;8.50;99.90
52565;DHT22;38460;53.106;7.004;2023-12-29T07:52:55;8.40;99.90
52565;DHT22;38460;53.106;7.004;2023-12-29T07:55:21;8.40;99.90
52565;DHT22;38460;53.106;7.004;2023-12-29T07:57:46;8.40;99.90
52565;DHT22;38460;53.106;7.004;2023-12-29T08:00:16;8.40;99.90
52565;DHT22;38460;53.106;7.004;2023-12-29T08:02:42;8.40;99.90
52565;DHT22;38460;53.106;7.004;2023-12-29T08:05:08;8.40;99.90
52565;DHT22;38460;53.106;7.004;2023-12-29T08:07:35;8.40;99.90
52565;DHT22;38460;53.106;7.004;2023-12-29T08:10:02;8.40;99.90
52565;DHT22;38460;53.106;7.004;2023-12-29T08:12:30;8.40;99.90
52565;DHT22;38460;53.106;7.004;2023-12-29T08:14:55;8.40;99.90
52565;DHT22;38460;53.106;7.004;2023-12-29T08:17:22;8.40;99.90
52565;DHT22;38460;53.106;7.004;2023-12-29T08:19:47;8.40;99.90
52565;DHT22;38460;53.106;7.004;2023-12-29T08:22:13;8.40;99.90
52565;DHT22;38460;53.106;7.004;2023-12-29T08:24:42;8.40;99.90
52565;DHT22;38460;53.106;7.004;2023-12-29T08:27:12;8.50;99.90
52565;DHT22;38460;53.106;7.004;2023-12-29T08:29:38;8.40;99.90
52565;DHT22;38460;53.106;7.004;2023-12-29T08:32:05;8.40;99.90
52565;DHT22;38460;53.106;7.004;2023-12-29T08:34:31;8.40;99.90
52565;DHT22;38460;53.106;7.004;2023-12-29T08:36:57;8.40;99.90
52565;DHT22;38460;53.106;7.004;2023-12-29T08:39:23;8.50;99.90
52565;DHT22;38460;53.106;7.004;2023-12-29T08:41:49;8.50;99.90
52565;DHT22;38460;53.106;7.004;2023-12-29T08:44:16;8.50;99.90
52565;DHT22;38460;53.106;7.004;2023-12-29T08:46:41;8.50;99.90
52565;DHT22;38460;53.106;7.004;2023-12-29T08:49:10;8.50;99.90
52565;DHT22;38460;53.106;7.004;2023-12-29T08:51:36;8.50;99.90
52565;DHT22;38460;53.106;7.004;2023-12-29T08:54:02;8.50;99.90
52565;DHT22;38460;53.106;7.004;2023-12-29T08:56:28;8.50;99.90
52565;DHT22;38460;53.106;7.004;2023-12-29T08:58:54;8.50;99.90
52565;DHT22;38460;53.106;7.004;2023-12-29T09:01:20;8.60;99.90
52565;DHT22;38460;53.106;7.004;2023-12-29T09:03:46;8.60;99.90
52565;DHT22;38460;53.106;7.004;2023-12-29T09:06:12;8.60;99.90
52565;DHT22;38460;53.106;7.004;2023-12-29T09:08:37;8.60;99.90
52565;DHT22;38460;53.106;7.004;2023-12-29T09:11:04;8.60;99.90
52565;DHT22;38460;53.106;7.004;2023-12-29T09:13:30;8.60;99.90
52565;DHT22;38460;53.106;7.004;2023-12-29T09:15:58;8.60;99.90
52565;DHT22;38460;53.106;7.004;2023-12-29T09:18:24;8.50;99.90
52565;DHT22;38460;53.106;7.004;2023-12-29T09:20:49;8.50;99.90
52565;DHT22;38460;53.106;7.004;2023-12-29T09:23:15;8.40;99.90
52565;DHT22;38460;53.106;7.004;2023-12-29T09:25:41;8.80;99.90
52565;DHT22;38460;53.106;7.004;2023-12-29T09:28:07;8.40;99.90
52565;DHT22;38460;53.106;7.004;2023-12-29T09:30:33;8.50;99.90
52565;DHT22;38460;53.106;7.004;2023-12-29T09:32:58;8.50;99.90
52565;DHT22;38460;53.106;7.004;2023-12-29T09:35:24;8.50;99.90
52565;DHT22;38460;53.106;7.004;2023-12-29T09:37:50;8.50;99.90
52565;DHT22;38460;53.106;7.004;2023-12-29T09:40:16;8.60;99.90
52565;DHT22;38460;53.106;7.004;2023-12-29T09:42:43;8.60;99.90
52565;DHT22;38460;53.106;7.004;2023-12-29T09:45:11;8.60;99.90
52565;DHT22;38460;53.106;7.004;2023-12-29T09:47:42;8.60;99.90
52565;DHT22;38460;53.106;7.004;2023-12-29T09:50:11;8.70;99.90
52565;DHT22;38460;53.106;7.004;2023-12-29T09:52:40;8.70;99.90
52565;DHT22;38460;53.106;7.004;2023-12-29T09:55:10;8.70;99.90
52565;DHT22;38460;53.106;7.004;2023-12-29T09:57:39;8.70;99.90
52565;DHT22;38460;53.106;7.004;2023-12-29T10:00:06;8.70;99.90
52565;DHT22;38460;53.106;7.004;2023-12-29T10:02:36;8.80;99.90
52565;DHT22;38460;53.106;7.004;2023-12-29T10:05:03;8.80;99.90
52565;DHT22;38460;53.106;7.004;2023-12-29T10:07:32;8.80;99.90
52565;DHT22;38460;53.106;7.004;2023-12-29T10:10:01;8.80;99.90
52565;DHT22;38460;53.106;7.004;2023-12-29T10:12:28;8.80;99.90
52565;DHT22;38460;53.106;7.004;2023-12-29T10:18:00;8.80;99.90
52565;DHT22;38460;53.106;7.004;2023-12-29T10:21:08;8.90;99.90
52565;DHT22;38460;53.106;7.004;2023-12-29T10:23:53;8.90;99.90
52565;DHT22;38460;53.106;7.004;2023-12-29T10:26:20;8.90;99.90
52565;DHT22;38460;53.106;7.004;2023-12-29T10:28:47;8.90;99.90
52565;DHT22;38460;53.106;7.004;2023-12-29T10:31:15;9.00;99.90
52565;DHT22;38460;53.106;7.004;2023-12-29T10:33:41;9.00;99.90
52565;DHT22;38460;53.106;7.004;2023-12-29T10:36:07;9.00;99.90
52565;DHT22;38460;53.106;7.004;2023-12-29T10:38:34;9.10;99.90
52565;DHT22;38460;53.106;7.004;2023-12-29T10:41:18;9.10;99.90
52565;DHT22;38460;53.106;7.004;2023-12-29T10:43:46;9.10;99.90
52565;DHT22;38460;53.106;7.004;2023-12-29T10:46:18;9.10;99.90
52565;DHT22;38460;53.106;7.004;2023-12-29T10:48:43;9.20;99.90
52565;DHT22;38460;53.106;7.004;2023-12-29T10:51:10;9.20;99.90
52565;DHT22;38460;53.106;7.004;2023-12-29T10:53:36;9.20;99.90
52565;DHT22;38460;53.106;7.004;2023-12-29T10:56:02;9.20;99.90
52565;DHT22;38460;53.106;7.004;2023-12-29T10:58:29;9.20;99.90
52565;DHT22;38460;53.106;7.004;2023-12-29T11:00:55;9.20;99.90
52565;DHT22;38460;53.106;7.004;2023-12-29T11:03:23;9.20;99.90
52565;DHT22;38460;53.106;7.004;2023-12-29T11:05:50;9.20;99.90
52565;DHT22;38460;53.106;7.004;2023-12-29T11:08:20;9.20;99.90
52565;DHT22;38460;53.106;7.004;2023-12-29T11:10:50;9.20;99.90
52565;DHT22;38460;53.106;7.004;2023-12-29T11:13:16;9.20;99.90
52565;DHT22;38460;53.106;7.004;2023-12-29T11:15:43;9.20;99.90
52565;DHT22;38460;53.106;7.004;2023-12-29T11:18:15;9.20;99.90
52565;DHT22;38460;53.106;7.004;2023-12-29T11:20:42;9.20;99.90
52565;DHT22;38460;53.106;7.004;2023-12-29T11:23:12;9.30;99.90
52565;DHT22;38460;53.106;7.004;2023-12-29T11:25:39;9.40;99.90
52565;DHT22;38460;53.106;7.004;2023-12-29T11:28:10;9.40;99.90
52565;DHT22;38460;53.106;7.004;2023-12-29T11:30:37;9.50;99.90
52565;DHT22;38460;53.106;7.004;2023-12-29T11:33:18;9.50;99.90
52565;DHT22;38460;53.106;7.004;2023-12-29T11:35:54;9.50;99.90
52565;DHT22;38460;53.106;7.004;2023-12-29T11:44:12;9.60;99.90
52565;DHT22;38460;53.106;7.004;2023-12-29T11:46:40;9.70;99.90
52565;DHT22;38460;53.106;7.004;2023-12-29T11:49:09;9.70;99.90
52565;DHT22;38460;53.106;7.004;2023-12-29T11:51:38;9.80;99.90
52565;DHT22;38460;53.106;7.004;2023-12-29T11:54:05;9.80;99.90
52565;DHT22;38460;53.106;7.004;2023-12-29T11:56:35;9.80;99.90
52565;DHT22;38460;53.106;7.004;2023-12-29T12:01:39;9.80;99.90
52565;DHT22;38460;53.106;7.004;2023-12-29T12:04:41;9.80;99.90
52565;DHT22;38460;53.106;7.004;2023-12-29T12:09:38;9.60;99.90
52565;DHT22;38460;53.106;7.004;2023-12-29T12:12:05;9.60;99.90
52565;DHT22;38460;53.106;7.004;2023-12-29T12:14:47;9.50;99.90
52565;DHT22;38460;53.106;7.004;2023-12-29T12:17:33;9.50;99.90
52565;DHT22;38460;53.106;7.004;2023-12-29T12:20:06;9.40;99.90
52565;DHT22;38460;53.106;7.004;2023-12-29T12:22:35;9.40;99.90
52565;DHT22;38460;53.106;7.004;2023-12-29T12:25:02;9.40;99.90
52565;DHT22;38460;53.106;7.004;2023-12-29T12:27:29;9.40;99.90
52565;DHT22;38460;53.106;7.004;2023-12-29T12:29:59;9.40;99.90
52565;DHT22;38460;53.106;7.004;2023-12-29T12:32:26;9.50;99.90
52565;DHT22;38460;53.106;7.004;2023-12-29T12:34:52;9.50;99.90
52565;DHT22;38460;53.106;7.004;2023-12-29T12:37:27;9.50;99.90
52565;DHT22;38460;53.106;7.004;2023-12-29T12:39:54;9.60;99.90
52565;DHT22;38460;53.106;7.004;2023-12-29T12:42:21;9.60;99.90
52565;DHT22;38460;53.106;7.004;2023-12-29T12:45:04;9.50;99.90
52565;DHT22;38460;53.106;7.004;2023-12-29T12:47:37;9.50;99.90
52565;DHT22;38460;53.106;7.004;2023-12-29T12:50:07;9.50;99.90
52565;DHT22;38460;53.106;7.004;2023-12-29T12:52:35;9.50;99.90
52565;DHT22;38460;53.106;7.004;2023-12-29T12:55:02;9.40;99.90
52565;DHT22;38460;53.106;7.004;2023-12-29T12:57:28;9.40;99.90
52565;DHT22;38460;53.106;7.004;2023-12-29T12:59:55;9.40;99.90
52565;DHT22;38460;53.106;7.004;2023-12-29T13:02:21;9.30;99.90
52565;DHT22;38460;53.106;7.004;2023-12-29T13:04:48;9.30;99.90
52565;DHT22;38460;53.106;7.004;2023-12-29T13:07:17;9.30;99.90
52565;DHT22;38460;53.106;7.004;2023-12-29T13:09:45;9.30;99.90
52565;DHT22;38460;53.106;7.004;2023-12-29T13:12:14;9.30;99.90
52565;DHT22;38460;53.106;7.004;2023-12-29T13:14:41;9.20;99.90
52565;DHT22;38460;53.106;7.004;2023-12-29T13:17:15;9.20;99.90
52565;DHT22;38460;53.106;7.004;2023-12-29T13:19:42;9.20;99.90
52565;DHT22;38460;53.106;7.004;2023-12-29T13:22:10;9.20;99.90
52565;DHT22;38460;53.106;7.004;2023-12-29T13:24:43;9.20;99.90
52565;DHT22;38460;53.106;7.004;2023-12-29T13:27:10;9.10;99.90
52565;DHT22;38460;53.106;7.004;2023-12-29T13:29:38;9.10;99.90
52565;DHT22;38460;53.106;7.004;2023-12-29T13:40:14;9.00;99.90
52565;DHT22;38460;53.106;7.004;2023-12-29T13:42:45;8.90;99.90
52565;DHT22;38460;53.106;7.004;2023-12-29T13:45:13;8.90;99.90
52565;DHT22;38460;53.106;7.004;2023-12-29T13:47:40;8.90;99.90
52565;DHT22;38460;53.106;7.004;2023-12-29T13:50:09;8.80;99.90
52565;DHT22;38460;53.106;7.004;2023-12-29T13:52:38;8.80;99.90
52565;DHT22;38460;53.106;7.004;2023-12-29T13:55:04;8.90;99.90
52565;DHT22;38460;53.106;7.004;2023-12-29T13:57:35;8.80;99.90
52565;DHT22;38460;53.106;7.004;2023-12-29T14:03:06;8.80;99.90
52565;DHT22;38460;53.106;7.004;2023-12-29T14:05:36;8.70;99.90
52565;DHT22;38460;53.106;7.004;2023-12-29T14:10:34;8.60;99.90
52565;DHT22;38460;53.106;7.004;2023-12-29T14:13:10;8.60;99.90
52565;DHT22;38460;53.106;7.004;2023-12-29T14:15:38;8.50;99.90
52565;DHT22;38460;53.106;7.004;2023-12-29T14:20:39;8.50;99.90
52565;DHT22;38460;53.106;7.004;2023-12-29T14:23:06;8.50;99.90
52565;DHT22;38460;53.106;7.004;2023-12-29T14:25:36;8.50;99.90
52565;DHT22;38460;53.106;7.004;2023-12-29T14:28:03;8.50;99.90
52565;DHT22;38460;53.106;7.004;2023-12-29T14:30:29;8.40;99.90
52565;DHT22;38460;53.106;7.004;2023-12-29T14:32:58;8.40;99.90
52565;DHT22;38460;53.106;7.004;2023-12-29T14:35:24;8.40;99.90
52565;DHT22;38460;53.106;7.004;2023-12-29T14:37:49;8.40;99.90
52565;DHT22;38460;53.106;7.004;2023-12-29T14:40:15;8.40;99.90
52565;DHT22;38460;53.106;7.004;2023-12-29T14:42:41;8.30;99.90
52565;DHT22;38460;53.106;7.004;2023-12-29T14:45:08;8.30;99.90
52565;DHT22;38460;53.106;7.004;2023-12-29T14:47:35;8.30;99.90
52565;DHT22;38460;53.106;7.004;2023-12-29T14:50:01;8.30;99.90
52565;DHT22;38460;53.106;7.004;2023-12-29T14:52:26;8.20;99.90
52565;DHT22;38460;53.106;7.004;2023-12-29T14:54:52;8.20;99.90
52565;DHT22;38460;53.106;7.004;2023-12-29T14:57:18;8.20;99.90
52565;DHT22;38460;53.106;7.004;2023-12-29T14:59:44;8.20;99.90
52565;DHT22;38460;53.106;7.004;2023-12-29T15:02:10;8.10;99.90
52565;DHT22;38460;53.106;7.004;2023-12-29T15:04:36;8.10;99.90
52565;DHT22;38460;53.106;7.004;2023-12-29T15:07:02;8.10;99.90
52565;DHT22;38460;53.106;7.004;2023-12-29T15:09:28;8.00;99.90
52565;DHT22;38460;53.106;7.004;2023-12-29T15:11:56;8.10;99.90
52565;DHT22;38460;53.106;7.004;2023-12-29T15:14:22;8.00;99.90
52565;DHT22;38460;53.106;7.004;2023-12-29T15:16:47;8.00;99.90
52565;DHT22;38460;53.106;7.004;2023-12-29T15:19:13;8.00;99.90
52565;DHT22;38460;53.106;7.004;2023-12-29T15:21:39;8.00;99.90
52565;DHT22;38460;53.106;7.004;2023-12-29T15:24:05;7.90;99.90
52565;DHT22;38460;53.106;7.004;2023-12-29T15:26:31;7.90;99.90
52565;DHT22;38460;53.106;7.004;2023-12-29T15:28:56;7.90;99.90
52565;DHT22;38460;53.106;7.004;2023-12-29T15:31:25;7.90;99.90
52565;DHT22;38460;53.106;7.004;2023-12-29T15:33:51;7.90;99.90
52565;DHT22;38460;53.106;7.004;2023-12-29T15:36:18;7.80;99.90
52565;DHT22;38460;53.106;7.004;2023-12-29T15:38:52;7.80;99.90
52565;DHT22;38460;53.106;7.004;2023-12-29T15:41:18;7.80;99.90
52565;DHT22;38460;53.106;7.004;2023-12-29T15:43:44;7.80;99.90
52565;DHT22;38460;53.106;7.004;2023-12-29T15:46:15;7.70;99.90
52565;DHT22;38460;53.106;7.004;2023-12-29T15:48:42;7.70;99.90
52565;DHT22;38460;53.106;7.004;2023-12-29T15:51:08;7.70;99.90
52565;DHT22;38460;53.106;7.004;2023-12-29T15:53:36;7.70;99.90
52565;DHT22;38460;53.106;7.004;2023-12-29T15:56:02;7.70;99.90
52565;DHT22;38460;53.106;7.004;2023-12-29T15:58:29;7.70;99.90
52565;DHT22;38460;53.106;7.004;2023-12-29T16:00:55;7.70;99.90
52565;DHT22;38460;53.106;7.004;2023-12-29T16:03:21;7.70;99.90
52565;DHT22;38460;53.106;7.004;2023-12-29T16:05:47;7.70;99.90
52565;DHT22;38460;53.106;7.004;2023-12-29T16:08:13;7.70;99.90
52565;DHT22;38460;53.106;7.004;2023-12-29T16:10:40;7.70;99.90
52565;DHT22;38460;53.106;7.004;2023-12-29T16:13:06;7.70;99.90
52565;DHT22;38460;53.106;7.004;2023-12-29T16:15:32;7.70;99.90
52565;DHT22;38460;53.106;7.004;2023-12-29T16:17:58;7.80;99.90